createdAt,value
2023-10-02T00:02:10.674Z,7.23
2023-10-02T00:04:57.271Z,7.20
2023-10-02T00:07:46.454Z,7.17
2023-10-02T00:10:33.194Z,7.14
2023-10-02T00:13:19.974Z,7.09
2023-10-02T00:16:09.862Z,6.98
2023-10-02T00:19:17.763Z,6.85
2023-10-02T00:22:08.960Z,6.74
2023-10-02T00:24:55.465Z,6.64
2023-10-02T00:27:41.698Z,6.58
2023-10-02T00:30:37.135Z,6.53
2023-10-02T00:33:29.261Z,6.51
2023-10-02T00:36:17.008Z,6.48
2023-10-02T00:39:24.941Z,6.45
2023-10-02T00:42:30.322Z,6.44
2023-10-02T00:45:19.338Z,6.37
2023-10-02T00:48:21.411Z,6.30
2023-10-02T00:51:12.678Z,6.23
2023-10-02T00:54:20.690Z,6.20
2023-10-02T00:57:18.377Z,6.19
2023-10-02T01:00:07.604Z,6.12
2023-10-02T01:02:58.842Z,6.13
2023-10-02T01:05:53.903Z,5.90
2023-10-02T01:08:47.990Z,6.20
2023-10-02T01:11:36.020Z,6.26
2023-10-02T01:14:41.573Z,6.33
2023-10-02T01:17:29.198Z,6.27
2023-10-02T01:20:21.837Z,6.17
2023-10-02T01:23:17.437Z,6.11
2023-10-02T01:26:05.888Z,6.04
2023-10-02T01:28:52.720Z,6.07
2023-10-02T01:31:44.076Z,6.28
2023-10-02T01:34:35.582Z,6.47
2023-10-02T01:37:35.268Z,6.64
2023-10-02T01:40:35.800Z,6.83
2023-10-02T01:43:28.856Z,7.00
2023-10-02T01:46:19.363Z,7.24
2023-10-02T01:49:25.575Z,7.71
2023-10-02T01:52:13.098Z,8.02
2023-10-02T01:55:01.746Z,8.34
2023-10-02T01:57:48.691Z,8.35
2023-10-02T02:00:37.471Z,8.34
2023-10-02T02:03:23.994Z,8.36
2023-10-02T02:06:11.154Z,8.56
2023-10-02T02:09:00.980Z,8.60
2023-10-02T02:12:06.600Z,8.63
2023-10-02T02:14:54.298Z,8.63
2023-10-02T02:17:43.305Z,8.53
2023-10-02T02:20:43.756Z,8.62
2023-10-02T02:23:32.916Z,8.64
2023-10-02T02:26:22.985Z,8.70
2023-10-02T02:29:26.006Z,8.73
2023-10-02T02:32:11.737Z,8.74
2023-10-02T02:35:03.170Z,8.61
2023-10-02T02:37:51.714Z,8.74
2023-10-02T02:40:40.327Z,8.68
2023-10-02T02:43:28.598Z,8.72
2023-10-02T02:46:18.711Z,8.75
2023-10-02T02:49:05.740Z,8.69
2023-10-02T02:51:56.698Z,8.68
2023-10-02T02:54:45.704Z,8.73
2023-10-02T02:57:35.177Z,8.72
2023-10-02T03:00:30.798Z,8.72
2023-10-02T03:03:31.089Z,8.77
2023-10-02T03:06:20.023Z,8.75
2023-10-02T03:09:07.877Z,8.76
2023-10-02T03:11:54.616Z,8.78
2023-10-02T03:14:40.874Z,8.76
2023-10-02T03:17:32.969Z,8.77
2023-10-02T03:20:25.748Z,8.77
2023-10-02T03:23:13.150Z,8.77
2023-10-02T03:26:01.288Z,8.78
2023-10-02T03:28:48.755Z,8.67
2023-10-02T03:31:38.189Z,8.64
2023-10-02T03:34:30.295Z,8.59
2023-10-02T03:37:22.909Z,8.47
2023-10-02T03:40:15.459Z,8.50
2023-10-02T03:43:20.574Z,8.47
2023-10-02T03:46:07.990Z,8.43
2023-10-02T03:49:00.356Z,8.35
2023-10-02T03:51:46.996Z,8.34
2023-10-02T03:54:35.976Z,8.40
2023-10-02T03:57:36.333Z,8.46
2023-10-02T04:00:28.164Z,8.58
2023-10-02T04:03:15.848Z,8.61
2023-10-02T04:06:07.067Z,8.51
2023-10-02T04:09:07.189Z,8.37
2023-10-02T04:11:56.188Z,8.22
2023-10-02T04:14:44.134Z,8.32
2023-10-02T04:17:35.955Z,8.42
2023-10-02T04:20:28.788Z,8.39
2023-10-02T04:23:22.505Z,8.27
2023-10-02T04:26:20.688Z,8.17
2023-10-02T04:28:55.614Z,8.27
2023-10-02T04:31:25.420Z,8.35
2023-10-02T04:34:07.868Z,8.35
2023-10-02T04:36:41.997Z,8.40
2023-10-02T04:39:33.925Z,8.30
2023-10-02T04:42:13.872Z,8.33
2023-10-02T04:44:49.062Z,8.31
2023-10-02T04:47:22.310Z,8.20
2023-10-02T04:50:15.913Z,8.13
2023-10-02T04:52:58.452Z,7.99
2023-10-02T04:55:28.967Z,7.93
2023-10-02T04:58:04.181Z,7.77
2023-10-02T05:00:39.371Z,7.71
2023-10-02T05:03:10.896Z,7.64
2023-10-02T05:05:48.968Z,7.55
2023-10-02T05:08:20.716Z,7.61
2023-10-02T05:10:51.166Z,7.66
2023-10-02T05:13:35.869Z,7.76
2023-10-02T05:16:15.035Z,7.86
2023-10-02T05:18:48.667Z,7.95
2023-10-02T05:21:18.738Z,8.00
2023-10-02T05:23:58.077Z,8.09
2023-10-02T05:26:35.888Z,8.12
2023-10-02T05:29:09.864Z,8.17
2023-10-02T05:31:42.012Z,8.25
2023-10-02T05:34:10.934Z,8.29
2023-10-02T05:36:55.665Z,8.35
2023-10-02T05:39:35.658Z,8.43
2023-10-02T05:42:07.348Z,8.53
2023-10-02T05:44:36.302Z,8.63
2023-10-02T05:47:08.340Z,8.66
2023-10-02T05:49:38.783Z,8.80
2023-10-02T05:52:12.426Z,8.83
2023-10-02T05:54:48.692Z,8.91
2023-10-02T05:57:18.158Z,9.02
2023-10-02T05:59:49.706Z,9.13
2023-10-02T06:02:20.339Z,9.20
2023-10-02T06:04:50.518Z,9.26
2023-10-02T06:07:37.813Z,9.34
2023-10-02T06:10:09.671Z,9.39
2023-10-02T06:12:43.806Z,9.48
2023-10-02T06:15:32.523Z,9.42
2023-10-02T06:18:00.907Z,9.66
2023-10-02T06:20:28.709Z,9.74
2023-10-02T06:23:07.188Z,9.84
2023-10-02T06:25:36.020Z,9.97
2023-10-02T06:28:20.775Z,10.07
2023-10-02T06:30:51.042Z,10.12
2023-10-02T06:33:23.092Z,10.18
2023-10-02T06:35:58.108Z,10.23
2023-10-02T06:38:30.671Z,10.29
2023-10-02T06:40:58.927Z,10.33
2023-10-02T06:43:30.878Z,10.52
2023-10-02T06:46:09.278Z,10.56
2023-10-02T06:48:40.437Z,10.57
2023-10-02T06:51:09.067Z,10.64
2023-10-02T06:53:42.239Z,10.77
2023-10-02T06:56:12.341Z,10.83
2023-10-02T06:58:50.451Z,10.95
2023-10-02T07:01:19.732Z,11.00
2023-10-02T07:03:52.596Z,11.06
2023-10-02T07:06:21.568Z,11.09
2023-10-02T07:09:10.950Z,11.14
2023-10-02T07:11:40.433Z,11.18
2023-10-02T07:14:10.623Z,11.20
2023-10-02T07:16:39.217Z,11.32
2023-10-02T07:19:07.575Z,11.36
2023-10-02T07:21:36.975Z,11.40
2023-10-02T07:24:26.675Z,11.41
2023-10-02T07:26:55.207Z,11.45
2023-10-02T07:29:38.618Z,11.54
2023-10-02T07:32:08.166Z,11.61
2023-10-02T07:34:36.450Z,11.61
2023-10-02T07:37:06.506Z,11.70
2023-10-02T07:39:37.585Z,11.70
2023-10-02T07:42:11.137Z,11.84
2023-10-02T07:44:41.105Z,11.87
2023-10-02T07:47:13.056Z,11.89
2023-10-02T07:49:41.364Z,11.92
2023-10-02T07:52:09.786Z,11.97
2023-10-02T07:54:46.729Z,11.99
2023-10-02T07:57:15.451Z,11.95
2023-10-02T07:59:44.876Z,12.07
2023-10-02T08:02:27.330Z,12.19
2023-10-02T08:04:55.106Z,12.21
2023-10-02T08:07:31.062Z,12.16
2023-10-02T08:10:12.838Z,12.16
2023-10-02T08:12:56.026Z,12.19
2023-10-02T08:15:34.106Z,12.17
2023-10-02T08:18:05.473Z,12.20
2023-10-02T08:20:38.469Z,12.19
2023-10-02T08:23:24.556Z,12.18
2023-10-02T08:28:38.950Z,12.26
2023-10-02T08:31:14.746Z,12.22
2023-10-02T08:33:56.706Z,12.30
2023-10-02T08:36:29.573Z,12.28
2023-10-02T08:39:08.968Z,12.20
2023-10-02T08:41:47.925Z,12.29
2023-10-02T08:44:16.549Z,12.48
2023-10-02T08:46:45.502Z,12.63
2023-10-02T08:49:14.600Z,12.76
2023-10-02T08:51:50.049Z,12.86
2023-10-02T08:54:19.425Z,12.96
2023-10-02T08:57:07.554Z,12.92
2023-10-02T08:59:39.931Z,12.96
2023-10-02T09:02:13.222Z,12.97
2023-10-02T09:04:41.503Z,13.00
2023-10-02T09:07:24.250Z,12.91
2023-10-02T09:10:13.884Z,12.97
2023-10-02T09:12:51.527Z,12.84
2023-10-02T09:15:33.705Z,12.77
2023-10-02T09:18:21.124Z,12.81
2023-10-02T09:20:55.560Z,12.80
2023-10-02T09:23:28.834Z,12.77
2023-10-02T09:26:18.363Z,12.79
2023-10-02T09:29:01.119Z,12.92
2023-10-02T09:31:31.938Z,12.86
2023-10-02T09:34:54.429Z,12.96
2023-10-02T09:37:57.683Z,12.94
2023-10-02T09:40:01.373Z,12.92
2023-10-02T09:42:32.145Z,13.00
2023-10-02T09:45:10.089Z,13.01
2023-10-02T09:47:51.209Z,12.96
2023-10-02T09:50:30.816Z,12.99
2023-10-02T09:53:02.413Z,13.07
2023-10-02T09:55:49.064Z,13.14
2023-10-02T09:58:29.091Z,13.29
2023-10-02T10:01:36.559Z,13.39
2023-10-02T10:04:25.256Z,13.39
2023-10-02T10:07:10.955Z,13.37
2023-10-02T10:09:54.597Z,13.39
2023-10-02T10:12:49.982Z,13.40
2023-10-02T10:15:26.668Z,13.51
2023-10-02T10:17:58.336Z,13.57
2023-10-02T10:20:29.659Z,13.67
2023-10-02T10:22:56.905Z,13.64
2023-10-02T10:25:46.129Z,13.68
2023-10-02T10:28:29.607Z,13.77
2023-10-02T10:31:04.543Z,13.81
2023-10-02T10:33:37.556Z,13.85
2023-10-02T10:36:26.850Z,13.85
2023-10-02T10:38:56.005Z,13.86
2023-10-02T10:41:33.748Z,13.91
2023-10-02T10:44:07.761Z,14.05
2023-10-02T10:46:39.312Z,14.18
2023-10-02T10:49:11.875Z,14.29
2023-10-02T10:51:40.854Z,14.44
2023-10-02T10:54:30.280Z,14.68
2023-10-02T10:57:23.608Z,14.86
2023-10-02T11:00:25.106Z,14.94
2023-10-02T11:02:59.402Z,14.94
2023-10-02T11:05:34.218Z,14.93
2023-10-02T11:08:25.201Z,15.12
2023-10-02T11:11:02.977Z,15.34
2023-10-02T11:13:31.562Z,15.43
2023-10-02T11:16:09.076Z,15.48
2023-10-02T11:18:40.504Z,15.46
2023-10-02T11:21:24.005Z,15.43
2023-10-02T11:23:54.859Z,15.36
2023-10-02T11:26:25.237Z,15.30
2023-10-02T11:28:56.109Z,15.29
2023-10-02T11:31:32.280Z,15.43
2023-10-02T11:34:30.260Z,15.45
2023-10-02T11:36:58.164Z,15.64
2023-10-02T11:39:29.211Z,15.77
2023-10-02T11:41:57.633Z,15.93
2023-10-02T11:44:28.147Z,15.88
2023-10-02T11:46:56.338Z,15.92
2023-10-02T11:49:24.348Z,15.82
2023-10-02T11:51:52.192Z,15.73
2023-10-02T11:54:21.358Z,15.53
2023-10-02T11:56:49.117Z,15.21
2023-10-02T11:59:16.996Z,15.31
2023-10-02T12:01:46.613Z,15.41
2023-10-02T12:04:14.639Z,15.56
2023-10-02T12:06:43.682Z,15.57
2023-10-02T12:09:19.031Z,15.92
2023-10-02T12:11:48.753Z,16.51
2023-10-02T12:14:16.568Z,17.02
2023-10-02T12:16:44.669Z,17.64
2023-10-02T12:19:16.368Z,18.03
2023-10-02T12:21:54.496Z,18.41
2023-10-02T12:24:30.029Z,19.05
2023-10-02T12:26:59.455Z,19.72
2023-10-02T12:29:27.357Z,19.70
2023-10-02T12:31:55.423Z,19.12
2023-10-02T12:34:23.175Z,19.13
2023-10-02T12:36:53.332Z,18.87
2023-10-02T12:39:21.199Z,19.27
2023-10-02T12:41:49.292Z,19.21
2023-10-02T12:44:19.072Z,19.34
2023-10-02T12:46:51.588Z,19.82
2023-10-02T12:49:21.230Z,19.76
2023-10-02T12:51:53.509Z,19.16
2023-10-02T12:54:21.568Z,18.58
2023-10-02T12:56:51.049Z,18.31
2023-10-02T12:59:20.333Z,18.08
2023-10-02T13:01:48.343Z,17.99
2023-10-02T13:04:16.129Z,17.69
2023-10-02T13:06:46.449Z,18.25
2023-10-02T13:09:17.094Z,18.86
2023-10-02T13:11:46.707Z,19.15
2023-10-02T13:14:18.283Z,19.26
2023-10-02T13:16:50.166Z,19.96
2023-10-02T13:19:19.042Z,20.20
2023-10-02T13:21:53.124Z,19.96
2023-10-02T13:24:24.839Z,19.46
2023-10-02T13:26:54.799Z,19.08
2023-10-02T13:29:23.444Z,18.95
2023-10-02T13:31:53.338Z,19.28
2023-10-02T13:34:21.771Z,19.60
2023-10-02T13:36:49.632Z,19.34
2023-10-02T13:39:19.289Z,18.96
2023-10-02T13:41:47.538Z,18.62
2023-10-02T13:44:15.889Z,18.49
2023-10-02T13:46:44.196Z,18.20
2023-10-02T13:49:13.680Z,18.42
2023-10-02T13:51:42.951Z,18.45
2023-10-02T13:54:11.066Z,18.70
2023-10-02T13:56:38.806Z,19.12
2023-10-02T13:59:06.873Z,19.55
2023-10-02T14:01:35.354Z,19.51
2023-10-02T14:04:08.062Z,19.33
2023-10-02T14:06:37.396Z,19.41
2023-10-02T14:09:11.340Z,19.60
2023-10-02T14:11:41.202Z,19.50
2023-10-02T14:14:09.642Z,19.59
2023-10-02T14:16:37.692Z,19.56
2023-10-02T14:19:07.876Z,19.72
2023-10-02T14:21:37.252Z,19.90
2023-10-02T14:24:06.199Z,19.91
2023-10-02T14:26:34.326Z,20.47
2023-10-02T14:29:02.908Z,20.97
2023-10-02T14:31:33.083Z,21.28
2023-10-02T14:34:03.972Z,21.18
2023-10-02T14:36:31.815Z,21.27
2023-10-02T14:39:04.302Z,21.81
2023-10-02T14:41:32.248Z,21.86
2023-10-02T14:44:00.249Z,21.68
2023-10-02T14:46:28.409Z,21.77
2023-10-02T14:48:56.469Z,21.09
2023-10-02T14:51:24.703Z,20.16
2023-10-02T14:53:52.775Z,19.32
2023-10-02T14:56:22.806Z,18.88
2023-10-02T14:58:51.934Z,18.54
2023-10-02T15:01:21.099Z,18.23
2023-10-02T15:03:50.210Z,17.85
2023-10-02T15:06:18.401Z,17.79
2023-10-02T15:08:46.500Z,17.65
2023-10-02T15:11:16.917Z,17.55
2023-10-02T15:13:47.756Z,17.44
2023-10-02T15:16:16.814Z,17.20
2023-10-02T15:18:47.350Z,17.07
2023-10-02T15:21:17.627Z,16.94
2023-10-02T15:23:45.622Z,16.84
2023-10-02T15:26:13.552Z,16.76
2023-10-02T15:28:41.447Z,16.66
2023-10-02T15:31:14.492Z,16.53
2023-10-02T15:33:43.469Z,16.35
2023-10-02T15:36:12.899Z,16.21
2023-10-02T15:38:42.300Z,16.18
2023-10-02T15:41:27.740Z,16.07
2023-10-02T15:43:57.595Z,15.93
2023-10-02T15:46:27.980Z,15.82
2023-10-02T15:48:56.173Z,15.72
2023-10-02T15:51:25.455Z,15.62
2023-10-02T15:53:54.130Z,15.47
2023-10-02T15:56:25.185Z,15.37
2023-10-02T15:58:53.450Z,15.30
2023-10-02T16:01:22.320Z,15.21
2023-10-02T16:03:52.155Z,15.10
2023-10-02T16:06:22.008Z,14.99
2023-10-02T16:08:53.907Z,14.91
2023-10-02T16:11:23.206Z,14.92
2023-10-02T16:13:53.494Z,14.88
2023-10-02T16:16:23.921Z,14.76
2023-10-02T16:18:53.611Z,14.67
2023-10-02T16:21:23.524Z,14.57
2023-10-02T16:23:51.907Z,14.55
2023-10-02T16:26:21.582Z,14.50
2023-10-02T16:28:51.534Z,14.45
2023-10-02T16:31:25.126Z,14.28
2023-10-02T16:33:54.406Z,14.33
2023-10-02T16:36:25.224Z,14.25
2023-10-02T16:39:05.211Z,14.22
2023-10-02T16:41:35.469Z,14.15
2023-10-02T16:44:05.653Z,14.02
2023-10-02T16:46:34.451Z,13.80
2023-10-02T16:49:04.103Z,13.90
2023-10-02T16:51:32.053Z,13.79
2023-10-02T16:53:59.978Z,13.79
2023-10-02T16:56:27.887Z,13.64
2023-10-02T16:58:55.810Z,13.66
2023-10-02T17:01:23.941Z,13.61
2023-10-02T17:03:53.019Z,13.60
2023-10-02T17:06:23.067Z,13.56
2023-10-02T17:08:54.046Z,13.40
2023-10-02T17:11:26.608Z,13.23
2023-10-02T17:13:55.334Z,13.20
2023-10-02T17:16:23.159Z,13.29
2023-10-02T17:18:50.991Z,13.33
2023-10-02T17:21:21.287Z,13.49
2023-10-02T17:23:50.902Z,13.50
2023-10-02T17:26:18.722Z,13.50
2023-10-02T17:28:48.016Z,13.54
2023-10-02T17:31:16.492Z,13.49
2023-10-02T17:33:44.524Z,13.48
2023-10-02T17:36:12.425Z,13.53
2023-10-02T17:38:41.750Z,13.54
2023-10-02T17:41:11.092Z,13.55
2023-10-02T17:43:38.932Z,13.51
2023-10-02T17:46:07.297Z,13.54
2023-10-02T17:48:35.578Z,13.57
2023-10-02T17:51:03.548Z,13.56
2023-10-02T17:53:31.422Z,13.56
2023-10-02T17:55:59.363Z,13.43
2023-10-02T17:58:28.483Z,13.48
2023-10-02T18:01:03.669Z,13.40
2023-10-02T18:03:32.838Z,13.35
2023-10-02T18:06:01.553Z,13.35
2023-10-02T18:08:31.403Z,13.26
2023-10-02T18:10:59.265Z,13.16
2023-10-02T18:13:28.367Z,13.11
2023-10-02T18:15:58.319Z,13.26
2023-10-02T18:18:26.319Z,13.27
2023-10-02T18:20:54.104Z,13.23
2023-10-02T18:23:22.017Z,13.23
2023-10-02T18:25:53.465Z,13.27
2023-10-02T18:28:21.406Z,13.26
2023-10-02T18:30:51.715Z,13.19
2023-10-02T18:33:20.846Z,13.31
2023-10-02T18:35:50.117Z,13.30
2023-10-02T18:38:18.148Z,13.29
2023-10-02T18:40:47.817Z,13.22
2023-10-02T18:43:16.298Z,13.20
2023-10-02T18:45:45.323Z,13.16
2023-10-02T18:48:16.274Z,13.03
2023-10-02T18:50:44.516Z,13.04
2023-10-02T18:53:12.569Z,12.99
2023-10-02T18:55:41.482Z,13.03
2023-10-02T18:58:10.202Z,12.91
2023-10-02T19:00:38.578Z,12.75
2023-10-02T19:03:07.197Z,12.68
2023-10-02T19:05:39.390Z,12.66
2023-10-02T19:08:08.157Z,12.76
2023-10-02T19:10:35.986Z,12.68
2023-10-02T19:13:04.224Z,12.77
2023-10-02T19:15:31.978Z,12.76
2023-10-02T19:18:00.158Z,12.85
2023-10-02T19:20:28.017Z,12.74
2023-10-02T19:22:57.758Z,12.75
2023-10-02T19:25:25.728Z,12.72
2023-10-02T19:27:53.959Z,12.86
2023-10-02T19:30:22.040Z,12.94
2023-10-02T19:32:49.938Z,12.92
2023-10-02T19:35:18.114Z,12.95
2023-10-02T19:37:46.012Z,12.92
2023-10-02T19:40:16.858Z,12.87
2023-10-02T19:42:45.270Z,12.99
2023-10-02T19:45:13.572Z,12.99
2023-10-02T19:47:44.526Z,12.99
2023-10-02T19:50:15.819Z,13.00
2023-10-02T19:52:43.718Z,12.94
2023-10-02T19:55:12.278Z,12.94
2023-10-02T19:57:41.790Z,12.92
2023-10-02T20:00:12.198Z,12.79
2023-10-02T20:02:43.643Z,12.75
2023-10-02T20:05:12.102Z,12.71
2023-10-02T20:07:40.002Z,12.65
2023-10-02T20:10:09.055Z,12.62
2023-10-02T20:12:37.091Z,12.52
2023-10-02T20:15:08.178Z,12.49
2023-10-02T20:17:36.020Z,12.31
2023-10-02T20:20:05.940Z,12.20
2023-10-02T20:22:37.170Z,12.10
2023-10-02T20:25:07.834Z,12.12
2023-10-02T20:27:35.768Z,12.10
2023-10-02T20:30:03.780Z,12.15
2023-10-02T20:32:33.196Z,12.17
2023-10-02T20:35:07.890Z,12.19
2023-10-02T20:37:35.876Z,12.23
2023-10-02T20:40:06.669Z,12.16
2023-10-02T20:42:35.007Z,12.25
2023-10-02T20:45:03.116Z,12.19
2023-10-02T20:47:31.310Z,12.18
2023-10-02T20:50:00.735Z,12.24
2023-10-02T20:52:28.521Z,12.26
2023-10-02T20:54:56.517Z,12.37
2023-10-02T20:57:24.377Z,12.34
2023-10-02T20:59:52.508Z,12.41
2023-10-02T21:02:22.897Z,12.39
2023-10-02T21:04:51.208Z,12.38
2023-10-02T21:07:20.399Z,12.38
2023-10-02T21:09:48.204Z,12.31
2023-10-02T21:12:15.995Z,12.32
2023-10-02T21:14:43.801Z,12.40
2023-10-02T21:17:11.751Z,12.40
2023-10-02T21:19:40.655Z,12.38
2023-10-02T21:22:08.489Z,12.37
2023-10-02T21:24:37.755Z,12.31
2023-10-02T21:27:06.772Z,12.30
2023-10-02T21:29:34.801Z,12.28
2023-10-02T21:32:02.636Z,12.37
2023-10-02T21:34:30.429Z,12.37
2023-10-02T21:36:58.166Z,12.40
2023-10-02T21:39:26.011Z,12.40
2023-10-02T21:41:55.198Z,12.41
2023-10-02T21:44:23.339Z,12.42
2023-10-02T21:46:51.151Z,12.43
2023-10-02T21:49:18.912Z,12.38
2023-10-02T21:51:46.706Z,12.43
2023-10-02T21:54:14.404Z,12.46
2023-10-02T21:56:42.411Z,12.41
2023-10-02T21:59:11.543Z,12.42
2023-10-02T22:01:39.443Z,12.42
2023-10-02T22:04:07.684Z,12.38
2023-10-02T22:06:37.403Z,12.41
2023-10-02T22:09:05.582Z,12.39
2023-10-02T22:11:35.103Z,12.33
2023-10-02T22:14:07.628Z,12.34
2023-10-02T22:16:39.605Z,12.39
2023-10-02T22:19:10.534Z,12.36
2023-10-02T22:21:38.829Z,12.34
2023-10-02T22:24:08.638Z,12.34
2023-10-02T22:26:36.500Z,12.28
2023-10-02T22:29:04.841Z,12.34
2023-10-02T22:31:36.958Z,12.36
2023-10-02T22:34:07.365Z,12.35
2023-10-02T22:36:35.535Z,12.36
2023-10-02T22:39:04.979Z,12.36
2023-10-02T22:41:34.151Z,12.29
2023-10-02T22:44:03.460Z,12.32
2023-10-02T22:46:31.522Z,12.32
2023-10-02T22:48:59.956Z,12.28
2023-10-02T22:51:32.256Z,12.29
2023-10-02T22:54:00.096Z,12.30
2023-10-02T22:56:27.864Z,12.31
2023-10-02T22:58:55.660Z,12.24
2023-10-02T23:01:23.699Z,12.22
2023-10-02T23:03:51.713Z,12.24
2023-10-02T23:06:19.879Z,12.24
2023-10-02T23:08:49.329Z,12.26
2023-10-02T23:11:18.139Z,12.23
2023-10-02T23:13:46.263Z,12.18
2023-10-02T23:16:14.351Z,12.23
2023-10-02T23:18:42.120Z,12.22
2023-10-02T23:21:09.908Z,12.25
2023-10-02T23:23:40.816Z,12.26
2023-10-02T23:26:16.638Z,12.27
2023-10-02T23:28:45.155Z,12.29
2023-10-02T23:31:13.050Z,12.26
2023-10-02T23:33:41.383Z,12.29
2023-10-02T23:36:11.972Z,12.28
2023-10-02T23:38:40.120Z,12.26
2023-10-02T23:41:08.359Z,12.28
2023-10-02T23:43:37.697Z,12.20
2023-10-02T23:46:05.985Z,12.20
2023-10-02T23:48:38.553Z,12.16
2023-10-02T23:51:13.321Z,12.19
2023-10-02T23:53:42.135Z,12.17
2023-10-02T23:56:14.407Z,12.09
2023-10-02T23:58:44.805Z,12.06
